createdAt,value
2018-01-07T00:01:55.550Z,3.70
2018-01-07T00:04:23.048Z,3.60
2018-01-07T00:06:50.708Z,3.60
2018-01-07T00:09:18.604Z,3.50
2018-01-07T00:11:46.106Z,3.60
2018-01-07T00:14:13.694Z,3.60
2018-01-07T00:16:41.196Z,3.70
2018-01-07T00:19:08.708Z,3.80
2018-01-07T00:21:36.329Z,3.60
2018-01-07T00:24:03.830Z,3.60
2018-01-07T00:26:32.103Z,3.60
2018-01-07T00:28:59.604Z,3.70
2018-01-07T00:31:27.095Z,3.70
2018-01-07T00:33:54.708Z,3.70
2018-01-07T00:36:22.319Z,3.50
2018-01-07T00:38:49.817Z,3.30
2018-01-07T00:41:17.519Z,3.40
2018-01-07T00:43:45.123Z,3.30
2018-01-07T00:46:12.631Z,3.30
2018-01-07T00:48:40.551Z,3.30
2018-01-07T00:51:08.059Z,3.40
2018-01-07T00:53:35.797Z,3.40
2018-01-07T00:56:04.812Z,3.40
2018-01-07T00:58:33.505Z,3.30
2018-01-07T01:01:01.815Z,3.30
2018-01-07T01:03:29.835Z,3.20
2018-01-07T01:05:57.351Z,3.10
2018-01-07T01:08:25.103Z,3.20
2018-01-07T01:10:52.863Z,3.00
2018-01-07T01:13:20.931Z,3.00
2018-01-07T01:15:48.439Z,3.10
2018-01-07T01:18:15.928Z,3.10
2018-01-07T01:20:44.555Z,2.90
2018-01-07T01:23:13.166Z,2.90
2018-01-07T01:25:40.676Z,2.90
2018-01-07T01:28:09.058Z,3.00
2018-01-07T01:30:36.947Z,2.90
2018-01-07T01:33:07.983Z,2.80
2018-01-07T01:35:36.446Z,2.70
2018-01-07T01:38:04.102Z,2.70
2018-01-07T01:40:32.375Z,2.70
2018-01-07T01:43:00.381Z,2.50
2018-01-07T01:45:27.971Z,2.40
2018-01-07T01:47:55.467Z,2.50
2018-01-07T01:50:23.807Z,2.60
2018-01-07T01:52:51.312Z,2.40
2018-01-07T01:55:19.060Z,2.60
2018-01-07T01:57:48.411Z,2.40
2018-01-07T02:00:15.907Z,2.50
2018-01-07T02:02:43.584Z,2.40
2018-01-07T02:05:12.609Z,2.30
2018-01-07T02:07:41.872Z,2.40
2018-01-07T02:10:10.451Z,2.30
2018-01-07T02:12:37.979Z,2.20
2018-01-07T02:15:05.928Z,2.30
2018-01-07T02:17:34.196Z,2.30
2018-01-07T02:20:04.628Z,2.20
2018-01-07T02:22:32.139Z,2.20
2018-01-07T02:24:59.953Z,2.00
2018-01-07T02:27:28.238Z,1.80
2018-01-07T02:29:55.727Z,1.80
2018-01-07T02:32:23.505Z,1.80
2018-01-07T02:34:51.119Z,2.00
2018-01-07T02:37:19.643Z,2.00
2018-01-07T02:39:47.131Z,2.10
2018-01-07T02:42:14.740Z,1.90
2018-01-07T02:44:42.767Z,2.00
2018-01-07T02:47:10.650Z,1.80
2018-01-07T02:49:38.155Z,1.80
2018-01-07T02:52:06.833Z,2.00
2018-01-07T02:54:34.907Z,1.90
2018-01-07T02:57:02.404Z,1.90
2018-01-07T02:59:29.916Z,1.90
2018-01-07T03:01:57.572Z,1.90
2018-01-07T03:04:25.933Z,1.60
2018-01-07T03:06:53.871Z,1.50
2018-01-07T03:09:21.776Z,1.60
2018-01-07T03:11:49.667Z,1.60
2018-01-07T03:14:17.331Z,1.60
2018-01-07T03:16:45.095Z,1.60
2018-01-07T03:19:13.548Z,1.70
2018-01-07T03:21:41.040Z,1.70
2018-01-07T03:24:08.691Z,1.70
2018-01-07T03:26:36.462Z,1.70
2018-01-07T03:29:03.962Z,1.50
2018-01-07T03:31:32.242Z,1.50
2018-01-07T03:33:59.743Z,1.50
2018-01-07T03:36:27.841Z,1.50
2018-01-07T03:38:55.744Z,1.60
2018-01-07T03:41:24.251Z,1.60
2018-01-07T03:43:51.739Z,1.80
2018-01-07T03:46:19.644Z,1.70
2018-01-07T03:48:47.242Z,1.70
2018-01-07T03:51:14.743Z,1.80
2018-01-07T03:53:42.771Z,2.00
2018-01-07T03:56:10.843Z,1.90
2018-01-07T03:58:38.921Z,1.90
2018-01-07T04:01:06.681Z,2.00
2018-01-07T04:03:34.702Z,1.50
2018-01-07T04:06:02.327Z,1.50
2018-01-07T04:08:29.966Z,1.60
2018-01-07T04:10:57.866Z,1.60
2018-01-07T04:13:25.500Z,1.40
2018-01-07T04:15:53.574Z,1.50
2018-01-07T04:18:21.345Z,1.40
2018-01-07T04:20:48.843Z,1.50
2018-01-07T04:23:16.338Z,1.30
2018-01-07T04:25:43.974Z,1.10
2018-01-07T04:28:11.776Z,1.30
2018-01-07T04:30:39.539Z,1.20
2018-01-07T04:33:07.483Z,1.30
2018-01-07T04:35:35.029Z,1.50
2018-01-07T04:38:02.528Z,1.60
2018-01-07T04:40:30.284Z,1.50
2018-01-07T04:42:58.646Z,1.60
2018-01-07T04:45:26.160Z,1.70
2018-01-07T04:47:53.722Z,1.60
2018-01-07T04:50:21.979Z,1.50
2018-01-07T04:52:49.486Z,1.50
2018-01-07T04:55:17.036Z,1.70
2018-01-07T04:57:44.988Z,1.60
2018-01-07T05:00:12.432Z,1.60
2018-01-07T05:02:39.935Z,1.60
2018-01-07T05:05:07.578Z,1.70
2018-01-07T05:07:35.467Z,1.60
2018-01-07T05:10:03.141Z,1.50
2018-01-07T05:12:31.211Z,1.20
2018-01-07T05:14:59.586Z,1.40
2018-01-07T05:17:27.488Z,1.30
2018-01-07T05:19:55.116Z,1.30
2018-01-07T05:22:22.615Z,1.40
2018-01-07T05:24:50.315Z,1.40
2018-01-07T05:27:18.408Z,1.20
2018-01-07T05:29:46.163Z,1.30
2018-01-07T05:32:13.930Z,1.20
2018-01-07T05:34:41.430Z,0.80
2018-01-07T05:37:09.066Z,0.80
2018-01-07T05:39:36.576Z,1.10
2018-01-07T05:42:04.271Z,1.30
2018-01-07T05:44:32.155Z,1.30
2018-01-07T05:47:01.160Z,1.30
2018-01-07T05:49:28.859Z,1.30
2018-01-07T05:51:56.660Z,1.40
2018-01-07T05:54:24.420Z,1.40
2018-01-07T05:56:52.179Z,1.30
2018-01-07T05:59:20.342Z,1.30
2018-01-07T06:01:47.985Z,1.20
2018-01-07T06:04:15.487Z,1.30
2018-01-07T06:06:42.983Z,1.30
2018-01-07T06:09:10.491Z,1.30
2018-01-07T06:11:38.118Z,1.10
2018-01-07T06:14:05.607Z,1.20
2018-01-07T06:16:33.338Z,1.00
2018-01-07T06:19:01.101Z,1.20
2018-01-07T06:21:29.516Z,1.10
2018-01-07T06:23:57.415Z,1.10
2018-01-07T06:26:25.739Z,1.10
2018-01-07T06:28:53.407Z,1.10
2018-01-07T06:31:20.905Z,1.40
2018-01-07T06:33:48.635Z,1.20
2018-01-07T06:36:16.666Z,1.10
2018-01-07T06:38:44.435Z,1.20
2018-01-07T06:41:12.315Z,1.30
2018-01-07T06:43:39.951Z,1.00
2018-01-07T06:46:07.447Z,0.80
2018-01-07T06:48:34.944Z,0.80
2018-01-07T06:51:04.207Z,1.10
2018-01-07T06:53:31.975Z,1.20
2018-01-07T06:55:59.870Z,1.40
2018-01-07T06:58:27.499Z,1.30
2018-01-07T07:00:55.004Z,1.30
2018-01-07T07:03:22.694Z,1.20
2018-01-07T07:05:50.210Z,1.30
2018-01-07T07:08:18.099Z,1.20
2018-01-07T07:10:46.358Z,1.10
2018-01-07T07:13:14.363Z,1.30
2018-01-07T07:15:42.641Z,1.10
2018-01-07T07:18:10.220Z,1.00
2018-01-07T07:20:37.719Z,1.20
2018-01-07T07:23:05.448Z,1.20
2018-01-07T07:25:32.940Z,1.30
2018-01-07T07:28:00.667Z,1.10
2018-01-07T07:30:29.043Z,1.00
2018-01-07T07:32:56.964Z,0.90
2018-01-07T07:35:25.500Z,1.10
2018-01-07T07:37:53.560Z,0.90
2018-01-07T07:40:21.064Z,0.80
2018-01-07T07:42:48.560Z,0.90
2018-01-07T07:45:16.251Z,1.00
2018-01-07T07:47:44.000Z,1.00
2018-01-07T07:50:11.893Z,0.90
2018-01-07T07:52:39.526Z,0.90
2018-01-07T07:55:07.298Z,0.90
2018-01-07T07:57:34.787Z,1.10
2018-01-07T08:00:02.515Z,1.10
2018-01-07T08:02:30.279Z,1.20
2018-01-07T08:04:57.764Z,1.20
2018-01-07T08:07:26.421Z,1.30
2018-01-07T08:09:54.492Z,1.40
2018-01-07T08:12:21.991Z,1.30
2018-01-07T08:14:49.887Z,1.40
2018-01-07T08:17:18.088Z,1.20
2018-01-07T08:19:45.977Z,1.20
2018-01-07T08:22:13.575Z,1.20
2018-01-07T08:24:41.378Z,1.10
2018-01-07T08:27:08.867Z,1.20
2018-01-07T08:29:36.372Z,1.30
2018-01-07T08:32:03.864Z,1.20
2018-01-07T08:34:31.382Z,0.90
2018-01-07T08:36:58.920Z,0.90
2018-01-07T08:39:26.821Z,1.10
2018-01-07T08:41:54.314Z,1.00
2018-01-07T08:44:21.806Z,1.10
2018-01-07T08:46:49.708Z,0.90
2018-01-07T08:49:17.481Z,1.00
2018-01-07T08:51:44.971Z,1.10
2018-01-07T08:54:12.480Z,1.20
2018-01-07T08:56:40.151Z,1.20
2018-01-07T08:59:07.675Z,1.20
2018-01-07T09:01:35.211Z,1.20
2018-01-07T09:04:03.480Z,1.10
2018-01-07T09:06:30.978Z,1.10
2018-01-07T09:08:58.471Z,1.10
2018-01-07T09:11:26.083Z,1.10
2018-01-07T09:13:53.891Z,1.10
2018-01-07T09:16:21.391Z,1.20
2018-01-07T09:18:48.999Z,1.20
2018-01-07T09:21:16.584Z,1.30
2018-01-07T09:23:44.071Z,1.30
2018-01-07T09:26:11.782Z,1.30
2018-01-07T09:28:39.279Z,1.30
2018-01-07T09:31:07.186Z,1.30
2018-01-07T09:33:34.676Z,1.30
2018-01-07T09:36:02.944Z,1.20
2018-01-07T09:38:31.207Z,1.00
2018-01-07T09:40:59.269Z,1.20
2018-01-07T09:43:26.771Z,1.20
2018-01-07T09:45:54.524Z,1.30
2018-01-07T09:48:23.531Z,1.50
2018-01-07T09:50:51.037Z,1.40
2018-01-07T09:53:19.311Z,1.30
2018-01-07T09:55:47.322Z,1.10
2018-01-07T09:58:15.749Z,1.00
2018-01-07T10:00:43.261Z,1.00
2018-01-07T10:03:10.751Z,1.30
2018-01-07T10:05:39.075Z,1.30
2018-01-07T10:08:07.424Z,1.40
2018-01-07T10:10:35.806Z,1.50
2018-01-07T10:13:03.308Z,1.70
2018-01-07T10:15:31.334Z,1.70
2018-01-07T10:17:58.840Z,1.80
2018-01-07T10:20:26.371Z,1.90
2018-01-07T10:22:54.009Z,1.90
2018-01-07T10:25:22.651Z,1.80
2018-01-07T10:27:50.924Z,1.80
2018-01-07T10:30:18.813Z,2.00
2018-01-07T10:32:46.635Z,1.90
2018-01-07T10:35:14.124Z,1.90
2018-01-07T10:37:42.435Z,1.90
2018-01-07T10:40:09.927Z,2.00
2018-01-07T10:42:37.698Z,2.00
2018-01-07T10:45:05.401Z,2.00
2018-01-07T10:47:32.910Z,2.40
2018-01-07T10:50:00.434Z,4.50
2018-01-07T10:52:29.054Z,5.10
2018-01-07T10:54:56.570Z,5.30
2018-01-07T10:57:24.068Z,5.80
2018-01-07T10:59:51.728Z,4.70
2018-01-07T11:02:25.563Z,5.10
2018-01-07T11:04:53.361Z,5.70
2018-01-07T11:07:21.283Z,5.60
2018-01-07T11:09:48.786Z,5.80
2018-01-07T11:12:16.278Z,6.10
2018-01-07T11:14:43.877Z,5.80
2018-01-07T11:17:11.464Z,5.10
2018-01-07T11:19:38.971Z,5.40
2018-01-07T11:22:07.299Z,6.20
2018-01-07T11:24:35.072Z,5.60
2018-01-07T11:27:02.959Z,4.40
2018-01-07T11:29:31.852Z,3.90
2018-01-07T11:31:59.410Z,3.60
2018-01-07T11:34:27.042Z,3.30
2018-01-07T11:36:55.292Z,3.30
2018-01-07T11:39:23.202Z,2.90
2018-01-07T11:41:50.701Z,2.70
2018-01-07T11:44:18.615Z,2.80
2018-01-07T11:46:46.118Z,2.80
2018-01-07T11:49:14.663Z,3.00
2018-01-07T11:51:42.612Z,2.80
2018-01-07T11:54:10.519Z,2.80
2018-01-07T11:56:39.536Z,2.80
2018-01-07T11:59:07.243Z,2.70
2018-01-07T12:01:35.512Z,2.50
2018-01-07T12:04:03.078Z,2.50
2018-01-07T12:06:30.855Z,2.50
2018-01-07T12:08:58.347Z,2.80
2018-01-07T12:11:25.971Z,2.90
2018-01-07T12:13:53.492Z,3.00
2018-01-07T12:16:21.384Z,2.60
2018-01-07T12:18:48.881Z,2.70
2018-01-07T12:21:16.491Z,2.70
2018-01-07T12:23:44.014Z,2.70
2018-01-07T12:26:11.942Z,2.60
2018-01-07T12:28:39.511Z,2.60
2018-01-07T12:31:07.007Z,2.70
2018-01-07T12:33:34.675Z,2.80
2018-01-07T12:36:02.189Z,2.90
2018-01-07T12:38:29.952Z,3.00
2018-01-07T12:40:58.464Z,3.00
2018-01-07T12:43:26.799Z,2.90
2018-01-07T12:45:54.742Z,3.00
2018-01-07T12:48:22.285Z,3.00
2018-01-07T12:50:50.614Z,3.10
2018-01-07T12:53:19.029Z,3.20
2018-01-07T12:55:47.884Z,3.20
2018-01-07T12:58:15.431Z,3.10
2018-01-07T13:00:42.947Z,3.10
2018-01-07T13:03:10.455Z,3.20
2018-01-07T13:05:38.295Z,3.10
2018-01-07T13:08:05.867Z,3.10
2018-01-07T13:10:33.359Z,3.00
2018-01-07T13:13:00.880Z,3.10
2018-01-07T13:15:28.372Z,3.00
2018-01-07T13:17:55.998Z,3.00
2018-01-07T13:20:23.764Z,2.90
2018-01-07T13:22:51.829Z,3.00
2018-01-07T13:25:19.323Z,3.10
2018-01-07T13:27:47.580Z,3.10
2018-01-07T13:30:15.472Z,3.10
2018-01-07T13:32:42.994Z,3.20
2018-01-07T13:35:10.480Z,3.10
2018-01-07T13:37:38.116Z,3.20
2018-01-07T13:40:05.611Z,3.10
2018-01-07T13:42:33.123Z,3.10
2018-01-07T13:45:00.800Z,3.10
2018-01-07T13:47:30.079Z,3.20
2018-01-07T13:49:57.571Z,3.40
2018-01-07T13:52:25.830Z,3.40
2018-01-07T13:54:54.400Z,4.60
2018-01-07T13:57:22.295Z,6.30
2018-01-07T13:59:49.800Z,6.10
2018-01-07T14:02:17.711Z,6.90
2018-01-07T14:04:45.364Z,6.90
2018-01-07T14:07:13.248Z,9.10
2018-01-07T14:09:41.879Z,6.90
2018-01-07T14:12:09.540Z,6.90
2018-01-07T14:14:37.040Z,6.90
2018-01-07T14:17:04.788Z,6.80
2018-01-07T14:19:32.291Z,6.60
2018-01-07T14:21:59.789Z,6.70
2018-01-07T14:24:27.302Z,6.90
2018-01-07T14:26:55.837Z,6.00
2018-01-07T14:29:23.338Z,4.80
2018-01-07T14:31:51.241Z,4.40
2018-01-07T14:34:18.841Z,3.80
2018-01-07T14:36:46.585Z,3.60
2018-01-07T14:39:14.572Z,3.40
2018-01-07T14:41:42.123Z,3.50
2018-01-07T14:44:09.696Z,3.50
2018-01-07T14:46:37.220Z,3.30
2018-01-07T14:49:04.732Z,3.20
2018-01-07T14:51:32.247Z,3.20
2018-01-07T14:54:00.009Z,4.30
2018-01-07T14:56:27.507Z,5.30
2018-01-07T14:58:55.423Z,6.20
2018-01-07T15:01:22.936Z,6.20
2018-01-07T15:03:50.846Z,5.10
2018-01-07T15:06:18.498Z,4.20
2018-01-07T15:08:45.992Z,3.90
2018-01-07T15:11:13.887Z,3.70
2018-01-07T15:13:42.148Z,3.50
2018-01-07T15:16:10.216Z,3.30
2018-01-07T15:18:37.930Z,3.00
2018-01-07T15:21:05.643Z,2.80
2018-01-07T15:23:33.179Z,2.80
2018-01-07T15:26:01.220Z,3.00
2018-01-07T15:28:29.020Z,2.80
2018-01-07T15:30:57.418Z,2.80
2018-01-07T15:33:25.368Z,2.60
2018-01-07T15:35:53.007Z,2.40
2018-01-07T15:38:20.634Z,2.40
2018-01-07T15:40:48.143Z,2.50
2018-01-07T15:43:16.198Z,2.50
2018-01-07T15:45:44.284Z,2.30
2018-01-07T15:48:11.771Z,2.30
2018-01-07T15:50:39.677Z,2.30
2018-01-07T15:53:07.230Z,2.20
2018-01-07T15:55:35.023Z,2.20
2018-01-07T15:58:02.928Z,2.20
2018-01-07T16:00:31.467Z,2.10
2018-01-07T16:02:59.236Z,2.10
2018-01-07T16:05:26.740Z,2.10
2018-01-07T16:07:54.266Z,2.10
2018-01-07T16:10:22.071Z,2.10
2018-01-07T16:12:49.683Z,2.20
2018-01-07T16:15:17.193Z,2.20
2018-01-07T16:17:44.704Z,2.20
2018-01-07T16:20:12.351Z,2.10
2018-01-07T16:22:40.060Z,1.90
2018-01-07T16:25:08.199Z,1.90
2018-01-07T16:27:35.952Z,2.00
2018-01-07T16:30:03.595Z,1.90
2018-01-07T16:32:32.071Z,1.90
2018-01-07T16:34:59.592Z,2.00
2018-01-07T16:37:27.324Z,2.00
2018-01-07T16:39:55.218Z,2.10
2018-01-07T16:42:23.494Z,2.20
2018-01-07T16:44:51.399Z,2.00
2018-01-07T16:47:18.958Z,1.80
2018-01-07T16:49:46.764Z,1.70
2018-01-07T16:52:14.811Z,1.80
2018-01-07T16:54:43.206Z,1.70
2018-01-07T16:57:12.211Z,1.80
2018-01-07T16:59:39.963Z,1.90
2018-01-07T17:02:08.235Z,1.80
2018-01-07T17:04:35.759Z,1.70
2018-01-07T17:07:03.280Z,1.80
2018-01-07T17:09:30.797Z,1.90
2018-01-07T17:11:58.295Z,1.90
2018-01-07T17:14:26.682Z,1.70
2018-01-07T17:16:54.940Z,1.90
2018-01-07T17:19:22.689Z,1.70
2018-01-07T17:21:51.683Z,1.70
2018-01-07T17:24:19.404Z,1.60
2018-01-07T17:26:48.091Z,1.50
2018-01-07T17:29:17.252Z,1.30
2018-01-07T17:31:45.520Z,1.20
2018-01-07T17:34:13.245Z,1.30
2018-01-07T17:36:41.156Z,1.40
2018-01-07T17:39:09.423Z,1.50
2018-01-07T17:41:37.747Z,1.50
2018-01-07T17:44:05.712Z,1.70
2018-01-07T17:46:33.611Z,1.50
2018-01-07T17:49:01.103Z,1.50
2018-01-07T17:51:29.019Z,1.50
2018-01-07T17:53:57.131Z,1.50
2018-01-07T17:56:24.652Z,1.50
2018-01-07T17:58:52.723Z,1.40
2018-01-07T18:01:20.490Z,1.20
2018-01-07T18:03:48.253Z,1.20
2018-01-07T18:06:15.748Z,1.20
2018-01-07T18:08:44.084Z,1.30
2018-01-07T18:11:11.596Z,1.20
2018-01-07T18:13:39.627Z,1.30
2018-01-07T18:16:08.642Z,1.30
2018-01-07T18:18:36.142Z,1.10
2018-01-07T18:21:03.654Z,1.30
2018-01-07T18:23:31.570Z,1.10
2018-01-07T18:25:59.080Z,1.00
2018-01-07T18:28:28.072Z,0.80
2018-01-07T18:30:56.349Z,0.80
2018-01-07T18:33:23.872Z,0.90
2018-01-07T18:35:51.393Z,1.00
2018-01-07T18:38:18.894Z,0.90
2018-01-07T18:40:46.651Z,0.50
2018-01-07T18:43:14.154Z,0.80
2018-01-07T18:45:42.411Z,0.60
2018-01-07T18:48:10.453Z,0.70
2018-01-07T18:50:41.183Z,0.80
2018-01-07T18:53:09.067Z,0.80
2018-01-07T18:55:37.672Z,0.90
2018-01-07T18:58:05.185Z,0.70
2018-01-07T19:00:32.951Z,0.50
2018-01-07T19:03:00.461Z,0.60
2018-01-07T19:05:28.152Z,0.50
2018-01-07T19:07:55.655Z,0.50
2018-01-07T19:10:23.151Z,0.50
2018-01-07T19:12:51.448Z,0.70
2018-01-07T19:15:18.937Z,0.40
2018-01-07T19:17:46.438Z,0.50
2018-01-07T19:20:14.155Z,0.50
2018-01-07T19:22:41.919Z,0.70
2018-01-07T19:25:09.416Z,0.80
2018-01-07T19:27:37.022Z,0.60
2018-01-07T19:30:05.506Z,0.80
2018-01-07T19:32:33.012Z,0.80
2018-01-07T19:35:00.524Z,0.80
2018-01-07T19:37:28.059Z,0.60
2018-01-07T19:39:55.552Z,0.50
2018-01-07T19:42:23.831Z,0.50
2018-01-07T19:44:52.103Z,0.30
2018-01-07T19:47:19.851Z,0.20
2018-01-07T19:49:47.751Z,0.40
2018-01-07T19:52:15.700Z,0.40
2018-01-07T19:54:43.600Z,0.20
2018-01-07T19:57:11.865Z,0.40
2018-01-07T19:59:39.591Z,0.40
2018-01-07T20:02:07.683Z,0.50
2018-01-07T20:04:35.428Z,0.30
2018-01-07T20:07:02.924Z,0.30
2018-01-07T20:09:31.266Z,0.40
2018-01-07T20:11:59.179Z,0.40
2018-01-07T20:14:27.455Z,0.30
2018-01-07T20:16:55.184Z,0.50
2018-01-07T20:19:22.689Z,0.60
2018-01-07T20:21:50.218Z,0.40
2018-01-07T20:24:18.128Z,0.20
2018-01-07T20:26:46.403Z,0.20
2018-01-07T20:29:14.001Z,0.10
2018-01-07T20:31:41.527Z,0.20
2018-01-07T20:34:09.820Z,0.40
2018-01-07T20:36:37.312Z,0.20
2018-01-07T20:39:04.812Z,0.20
2018-01-07T20:41:32.739Z,0.20
2018-01-07T20:44:00.266Z,-0.10
2018-01-07T20:46:27.768Z,0.00
2018-01-07T20:48:55.464Z,0.20
2018-01-07T20:51:23.255Z,0.00
2018-01-07T20:53:52.264Z,0.00
2018-01-07T20:56:19.777Z,0.10
2018-01-07T20:58:47.268Z,0.00
2018-01-07T21:01:15.864Z,0.10
2018-01-07T21:03:43.555Z,0.20
2018-01-07T21:06:11.683Z,0.20
2018-01-07T21:08:41.507Z,0.20
2018-01-07T21:11:09.044Z,0.20
2018-01-07T21:13:36.694Z,0.10
2018-01-07T21:16:04.256Z,0.00
2018-01-07T21:18:32.536Z,0.00
2018-01-07T21:21:00.112Z,-0.10
2018-01-07T21:23:29.123Z,-0.10
2018-01-07T21:25:56.705Z,0.00
2018-01-07T21:28:24.139Z,0.10
2018-01-07T21:30:52.419Z,-0.10
2018-01-07T21:33:19.943Z,-0.30
2018-01-07T21:35:48.228Z,-0.20
2018-01-07T21:38:17.268Z,0.00
2018-01-07T21:40:44.784Z,-0.20
2018-01-07T21:43:13.356Z,-0.30
2018-01-07T21:45:41.117Z,-0.20
2018-01-07T21:48:08.649Z,-0.20
2018-01-07T21:50:36.340Z,-0.20
2018-01-07T21:53:04.097Z,-0.20
2018-01-07T21:55:32.476Z,-0.10
2018-01-07T21:58:00.202Z,-0.10
2018-01-07T22:00:41.303Z,-0.20
2018-01-07T22:03:20.763Z,-0.20
2018-01-07T22:05:54.685Z,-0.10
2018-01-07T22:08:22.203Z,-0.20
2018-01-07T22:10:49.775Z,-0.20
2018-01-07T22:13:17.526Z,-0.20
2018-01-07T22:15:45.318Z,-0.30
2018-01-07T22:18:14.333Z,-0.20
2018-01-07T22:20:41.835Z,-0.10
2018-01-07T22:23:09.489Z,-0.10
2018-01-07T22:25:37.283Z,-0.20
2018-01-07T22:28:04.799Z,-0.20
2018-01-07T22:30:32.304Z,-0.20
2018-01-07T22:32:59.811Z,-0.40
2018-01-07T22:35:28.079Z,-0.50
2018-01-07T22:37:55.591Z,0.60
2018-01-07T22:40:23.108Z,1.50
2018-01-07T22:42:50.659Z,2.70
2018-01-07T22:45:18.475Z,2.50
2018-01-07T22:47:52.103Z,1.80
2018-01-07T22:50:19.612Z,1.20
2018-01-07T22:52:47.287Z,1.10
2018-01-07T22:55:14.786Z,0.90
2018-01-07T22:57:42.503Z,0.60
2018-01-07T23:00:10.012Z,0.40
2018-01-07T23:02:37.518Z,0.30
2018-01-07T23:05:05.416Z,0.40
2018-01-07T23:07:33.800Z,0.20
2018-01-07T23:10:01.322Z,0.20
2018-01-07T23:12:28.822Z,-0.30
2018-01-07T23:14:56.548Z,-0.30
2018-01-07T23:17:24.046Z,-0.40
2018-01-07T23:19:51.557Z,-0.50
2018-01-07T23:22:19.211Z,-0.50
2018-01-07T23:24:46.995Z,-0.40
2018-01-07T23:27:14.496Z,-0.40
2018-01-07T23:29:42.012Z,-0.40
2018-01-07T23:32:09.659Z,-0.30
2018-01-07T23:34:39.887Z,-0.30
2018-01-07T23:37:08.912Z,-0.20
2018-01-07T23:39:36.635Z,-0.20
2018-01-07T23:42:05.018Z,-0.20
2018-01-07T23:44:32.523Z,-0.30
2018-01-07T23:47:01.258Z,-0.40
2018-01-07T23:49:29.192Z,-0.40
2018-01-07T23:51:56.695Z,-0.50
2018-01-07T23:54:25.717Z,-0.40
2018-01-07T23:56:53.440Z,-0.50
2018-01-07T23:59:20.938Z,-0.50
